Captain Sam — WDB5536 — position and weather

sailwx.info

Track history (hours):
 
Tides and Currents Weather Stations Pressure Air Temp Water Temp Dewpoint Dewpoint Depression Visibility Wind Speed Wind Dir Waves Ship Positions

Captain Sam

Owner: SMITH MARINE TOWING, MORGAN CITY, LA. More information available from US FCC via Universal Licensing System and Coast Guard Vessel Documentation Center.

Last reported at 2018-Feb-16 15:07 UTC. Time now 2018-Feb-20 17:11 UTC.
Position N 34°12' W 077°57'.

; draft 4 m.

Type: Ship. MMSI: 366910710.

Date/timePositionNaut miles runAvg speedWind from/ knotsBaromVisibWave heightAir tempDewpointWater temp
2018-Feb-16 15:07N 34°12' W 077°57'1 5.3
2018-Feb-16 15:00N 34°13' W 077°57'1 1.7
2018-Feb-16 14:30N 34°14' W 077°57'1 1.5
2018-Feb-16 14:00N 34°13' W 077°57'1 0.1
2018-Feb-16 01:48N 34°12' W 077°57'1 4.9
2018-Feb-16 01:30N 34°14' W 077°57'0 0.1
2018-Feb-16 01:00N 34°14' W 077°57'0 0.0
2018-Feb-16 00:30N 34°14' W 077°57'0 0.0
2018-Feb-16 00:00N 34°14' W 077°57'0 0.0
2018-Feb-15 23:30N 34°14' W 077°57'0 0.0
2018-Feb-15 23:00N 34°14' W 077°57'0 0.0
2018-Feb-15 22:30N 34°14' W 077°57'0 0.5
2018-Feb-15 22:00N 34°13' W 077°57'0 0.0
2018-Feb-15 21:30N 34°13' W 077°57'0 0.0
2018-Feb-15 21:00N 34°13' W 077°57'0 0.5
2018-Feb-15 20:30N 34°14' W 077°57'0 0.0
2018-Feb-15 19:59N 34°14' W 077°57'0 0.0
2018-Feb-15 19:30N 34°14' W 077°57'0 0.0
2018-Feb-15 19:00N 34°14' W 077°57'0 0.0
2018-Feb-15 18:30N 34°14' W 077°57'1 1.3
2018-Feb-15 17:59N 34°13' W 077°57'  
2018-Feb-09 13:00N 34°40' W 076°56'7 4.9
2018-Feb-09 11:30N 34°41' W 076°47'2 4.8
2018-Feb-09 11:00N 34°41' W 076°44'2 4.2
2018-Feb-09 10:30N 34°40' W 076°41'2 2.3
2018-Feb-09 09:30N 34°42' W 076°41'0 0.2
2018-Feb-09 09:00N 34°42' W 076°42'3 6.7
2018-Feb-09 08:30N 34°39' W 076°40'4 7.4
2018-Feb-09 08:00N 34°36' W 076°41'4 7.9
2018-Feb-09 07:30N 34°40' W 076°40'2 4.7
2018-Feb-09 07:00N 34°42' W 076°40'1 0.8
2018-Feb-09 05:30N 34°42' W 076°42'0 0.0
2018-Feb-09 05:00N 34°42' W 076°42'0 0.0
2018-Feb-09 04:30N 34°42' W 076°42'0 0.0
2018-Feb-09 04:00N 34°42' W 076°42'0 0.0
2018-Feb-09 03:30N 34°42' W 076°42'0 0.0
2018-Feb-09 02:30N 34°42' W 076°42'0 0.0
2018-Feb-09 02:00N 34°42' W 076°42'0 0.0
2018-Feb-09 01:30N 34°42' W 076°42'0 0.0
2018-Feb-09 00:30N 34°42' W 076°42'0 0.0
2018-Feb-09 00:00N 34°42' W 076°42'0 0.0
2018-Feb-08 23:30N 34°42' W 076°42'0 0.0
2018-Feb-08 23:00N 34°42' W 076°42'0 0.0
2018-Feb-08 22:30N 34°42' W 076°42'0 0.0
2018-Feb-08 22:00N 34°42' W 076°42'0 0.0
2018-Feb-08 21:30N 34°42' W 076°42'0 0.0
2018-Feb-08 21:00N 34°42' W 076°42'0 0.0
2018-Feb-08 20:30N 34°42' W 076°42'0 0.0
2018-Feb-08 19:30N 34°42' W 076°42'0 0.0
2018-Feb-08 18:30N 34°42' W 076°42'0 0.0
2018-Feb-08 18:00N 34°42' W 076°42'0 0.0
2018-Feb-08 17:30N 34°42' W 076°42'0 0.0
2018-Feb-08 17:00N 34°42' W 076°42'0 0.0
2018-Feb-08 16:30N 34°42' W 076°42'0 0.0
2018-Feb-08 16:00N 34°42' W 076°42'0 0.0
2018-Feb-08 15:30N 34°42' W 076°42'0 0.0
2018-Feb-08 15:00N 34°42' W 076°42'0 0.0
2018-Feb-08 14:30N 34°42' W 076°42'0 0.0
2018-Feb-08 14:00N 34°42' W 076°42'0 0.0
2018-Feb-08 13:30N 34°42' W 076°42'0 0.0
2018-Feb-08 13:00N 34°42' W 076°42'0 0.0
2018-Feb-08 12:30N 34°42' W 076°42'1 1.2
2018-Feb-08 12:00N 34°43' W 076°42'0 0.0
2018-Feb-08 10:30N 34°43' W 076°42'0 0.0
2018-Feb-08 10:00N 34°43' W 076°42'0 0.0
2018-Feb-08 09:30N 34°43' W 076°42'0 0.0
2018-Feb-08 09:00N 34°43' W 076°42'0 0.0
2018-Feb-08 08:30N 34°43' W 076°42'5 5.1
2018-Feb-08 07:30N 34°48' W 076°41'5 4.5
2018-Feb-08 06:30N 34°53' W 076°41'  
Track history (hours):
 
Tides and Currents Weather Stations Pressure Air Temp Water Temp Dewpoint Dewpoint Depression Visibility Wind Speed Wind Dir Waves Ship Positions

Captain Sam

Owner: SMITH MARINE TOWING, MORGAN CITY, LA. More information available from US FCC via Universal Licensing System and Coast Guard Vessel Documentation Center.

Last reported at 2018-Feb-16 15:07 UTC. Time now 2018-Feb-20 17:11 UTC.
Position N 34°12' W 077°57'.

; draft 4 m.

Type: Ship. MMSI: 366910710.

Date/timePositionNaut miles runAvg speedWind from/ knotsBaromVisibWave heightAir tempDewpointWater temp
2018-Feb-16 15:07N 34°12' W 077°57'1 5.3
2018-Feb-16 15:00N 34°13' W 077°57'1 1.7
2018-Feb-16 14:30N 34°14' W 077°57'1 1.5
2018-Feb-16 14:00N 34°13' W 077°57'1 0.1
2018-Feb-16 01:48N 34°12' W 077°57'1 4.9
2018-Feb-16 01:30N 34°14' W 077°57'0 0.1
2018-Feb-16 01:00N 34°14' W 077°57'0 0.0
2018-Feb-16 00:30N 34°14' W 077°57'0 0.0
2018-Feb-16 00:00N 34°14' W 077°57'0 0.0
2018-Feb-15 23:30N 34°14' W 077°57'0 0.0
2018-Feb-15 23:00N 34°14' W 077°57'0 0.0
2018-Feb-15 22:30N 34°14' W 077°57'0 0.5
2018-Feb-15 22:00N 34°13' W 077°57'0 0.0
2018-Feb-15 21:30N 34°13' W 077°57'0 0.0
2018-Feb-15 21:00N 34°13' W 077°57'0 0.5
2018-Feb-15 20:30N 34°14' W 077°57'0 0.0
2018-Feb-15 19:59N 34°14' W 077°57'0 0.0
2018-Feb-15 19:30N 34°14' W 077°57'0 0.0
2018-Feb-15 19:00N 34°14' W 077°57'0 0.0
2018-Feb-15 18:30N 34°14' W 077°57'1 1.3
2018-Feb-15 17:59N 34°13' W 077°57'  
2018-Feb-09 13:00N 34°40' W 076°56'7 4.9
2018-Feb-09 11:30N 34°41' W 076°47'2 4.8
2018-Feb-09 11:00N 34°41' W 076°44'2 4.2
2018-Feb-09 10:30N 34°40' W 076°41'2 2.3
2018-Feb-09 09:30N 34°42' W 076°41'0 0.2
2018-Feb-09 09:00N 34°42' W 076°42'3 6.7
2018-Feb-09 08:30N 34°39' W 076°40'4 7.4
2018-Feb-09 08:00N 34°36' W 076°41'4 7.9
2018-Feb-09 07:30N 34°40' W 076°40'2 4.7
2018-Feb-09 07:00N 34°42' W 076°40'1 0.8
2018-Feb-09 05:30N 34°42' W 076°42'0 0.0
2018-Feb-09 05:00N 34°42' W 076°42'0 0.0
2018-Feb-09 04:30N 34°42' W 076°42'0 0.0
2018-Feb-09 04:00N 34°42' W 076°42'0 0.0
2018-Feb-09 03:30N 34°42' W 076°42'0 0.0
2018-Feb-09 02:30N 34°42' W 076°42'0 0.0
2018-Feb-09 02:00N 34°42' W 076°42'0 0.0
2018-Feb-09 01:30N 34°42' W 076°42'0 0.0
2018-Feb-09 00:30N 34°42' W 076°42'0 0.0
2018-Feb-09 00:00N 34°42' W 076°42'0 0.0
2018-Feb-08 23:30N 34°42' W 076°42'0 0.0
2018-Feb-08 23:00N 34°42' W 076°42'0 0.0
2018-Feb-08 22:30N 34°42' W 076°42'0 0.0
2018-Feb-08 22:00N 34°42' W 076°42'0 0.0
2018-Feb-08 21:30N 34°42' W 076°42'0 0.0
2018-Feb-08 21:00N 34°42' W 076°42'0 0.0
2018-Feb-08 20:30N 34°42' W 076°42'0 0.0
2018-Feb-08 19:30N 34°42' W 076°42'0 0.0
2018-Feb-08 18:30N 34°42' W 076°42'0 0.0
2018-Feb-08 18:00N 34°42' W 076°42'0 0.0
2018-Feb-08 17:30N 34°42' W 076°42'0 0.0
2018-Feb-08 17:00N 34°42' W 076°42'0 0.0
2018-Feb-08 16:30N 34°42' W 076°42'0 0.0
2018-Feb-08 16:00N 34°42' W 076°42'0 0.0
2018-Feb-08 15:30N 34°42' W 076°42'0 0.0
2018-Feb-08 15:00N 34°42' W 076°42'0 0.0
2018-Feb-08 14:30N 34°42' W 076°42'0 0.0
2018-Feb-08 14:00N 34°42' W 076°42'0 0.0
2018-Feb-08 13:30N 34°42' W 076°42'0 0.0
2018-Feb-08 13:00N 34°42' W 076°42'0 0.0
2018-Feb-08 12:30N 34°42' W 076°42'1 1.2
2018-Feb-08 12:00N 34°43' W 076°42'0 0.0
2018-Feb-08 10:30N 34°43' W 076°42'0 0.0
2018-Feb-08 10:00N 34°43' W 076°42'0 0.0
2018-Feb-08 09:30N 34°43' W 076°42'0 0.0
2018-Feb-08 09:00N 34°43' W 076°42'0 0.0
2018-Feb-08 08:30N 34°43' W 076°42'5 5.1
2018-Feb-08 07:30N 34°48' W 076°41'5 4.5
2018-Feb-08 06:30N 34°53' W 076°41'  

Dump ship's entire track history